Time;durP1;ratioP1;P1;durP2;ratioP2;P2;SDS_P1;SDS_P2;PMS_P1;PMS_P2;Temp;Humidity;BMP_temperature;BMP_pressure;BME280_temperature;BME280_humidity;BME280_pressure;Samples;Min_cycle;Max_cycle;Signal;HPM_P1;HPM_P2
2023/09/14 00:19:07;;;;;;;6.32;1.10;;;;;;;13.83;100.00;100698.56;4623440;30;20107;-86
2023/09/14 00:30:28;;;;;;;8.23;1.42;;;;;;;13.87;100.00;100699.91;4619928;30;20139;-86
2023/09/14 00:33:27;;;;;;;12.77;2.38;;;;;;;13.91;100.00;100673.84;4675462;30;20053;-84
2023/09/14 00:35:56;;;;;;;10.85;1.45;;;;;;;13.87;100.00;100691.13;4695949;30;20056;-87
2023/09/14 00:38:35;;;;;;;9.68;1.75;;;;;;;13.96;100.00;100682.19;4714202;30;20052;-87
2023/09/14 00:41:04;;;;;;;6.57;1.35;;;;;;;13.93;100.00;100687.81;4739757;30;20036;-88
2023/09/14 00:43:31;;;;;;;11.20;1.27;;;;;;;13.95;100.00;100692.97;4788935;29;20043;-87
2023/09/14 00:46:45;;;;;;;5.55;0.98;;;;;;;13.92;100.00;100686.13;4805986;29;20115;-87
2023/09/14 00:49:35;;;;;;;9.80;1.30;;;;;;;13.96;100.00;100684.00;4818062;29;20596;-86
2023/09/14 00:52:56;;;;;;;4.47;1.23;;;;;;;13.91;100.00;100687.13;4803257;29;20042;-85
2023/09/14 00:55:37;;;;;;;9.80;1.20;;;;;;;13.90;100.00;100682.81;4798408;29;20083;-87
2023/09/14 00:58:14;;;;;;;10.07;1.52;;;;;;;13.91;100.00;100694.25;4812623;29;20051;-87
2023/09/14 01:00:46;;;;;;;9.55;1.30;;;;;;;13.94;100.00;100686.81;4790227;29;20107;-87
2023/09/14 01:03:18;;;;;;;9.48;1.40;;;;;;;13.94;100.00;100688.63;4806299;29;20046;-87
2023/09/14 01:05:54;;;;;;;9.07;1.50;;;;;;;13.97;100.00;100677.69;4796713;29;20042;-85
2023/09/14 01:08:23;;;;;;;7.60;1.30;;;;;;;13.93;100.00;100663.06;4799808;29;20465;-87
2023/09/14 01:10:50;;;;;;;11.10;1.67;;;;;;;13.91;100.00;100657.06;4803814;29;20046;-86
2023/09/14 01:13:38;;;;;;;10.68;1.95;;;;;;;13.91;100.00;100678.31;4786299;29;20124;-87
2023/09/14 01:16:15;;;;;;;13.93;1.75;;;;;;;13.88;100.00;100675.00;4800708;29;20065;-85
2023/09/14 01:18:53;;;;;;;12.60;1.35;;;;;;;13.89;100.00;100670.50;4802760;29;20422;-85
2023/09/14 01:21:37;;;;;;;8.65;1.60;;;;;;;13.92;100.00;100672.03;4806316;29;20047;-86
2023/09/14 01:24:24;;;;;;;7.00;1.65;;;;;;;13.93;100.00;100669.22;4802567;29;20061;-87
2023/09/14 01:26:52;;;;;;;;;;;;;;;13.85;100.00;100677.16;4823920;29;20049;-86
2023/09/14 01:29:19;;;;;;;13.35;1.75;;;;;;;13.86;100.00;100674.34;4808843;29;19917;-87
2023/09/14 01:31:47;;;;;;;8.48;1.42;;;;;;;13.91;100.00;100667.69;4809406;29;20480;-86
2023/09/14 01:34:16;;;;;;;8.68;1.67;;;;;;;13.89;100.00;100678.47;4794518;29;20045;-87
2023/09/14 01:36:55;;;;;;;7.97;1.80;;;;;;;13.89;100.00;100689.97;4801234;29;20066;-85
2023/09/14 01:39:29;;;;;;;11.65;1.83;;;;;;;13.89;100.00;100705.06;4802485;29;20141;-88
2023/09/14 01:41:57;;;;;;;8.88;1.80;;;;;;;13.84;100.00;100702.88;4809733;29;20038;-85
2023/09/14 01:44:27;;;;;;;11.25;1.75;;;;;;;13.80;100.00;100701.53;4809078;29;20107;-86
2023/09/14 01:46:55;;;;;;;9.23;1.85;;;;;;;13.79;100.00;100707.03;4792830;29;20123;-82
2023/09/14 01:49:24;;;;;;;18.77;2.38;;;;;;;13.73;100.00;100708.47;4803328;29;20436;-83
2023/09/14 01:51:51;;;;;;;14.13;2.15;;;;;;;13.73;100.00;100697.84;4798126;29;20038;-83
2023/09/14 01:54:20;;;;;;;15.20;1.48;;;;;;;13.67;100.00;100711.75;4801196;29;20082;-80
2023/09/14 01:56:47;;;;;;;13.77;2.10;;;;;;;13.69;100.00;100709.78;4788120;29;20152;-80
2023/09/14 01:59:17;;;;;;;7.82;1.50;;;;;;;13.65;100.00;100695.97;4793637;29;20050;-79
2023/09/14 02:01:47;;;;;;;8.10;2.05;;;;;;;13.63;100.00;100697.97;4819932;29;20484;-80
2023/09/14 02:04:16;;;;;;;15.00;1.73;;;;;;;13.60;100.00;100706.28;4814285;29;20042;-80
2023/09/14 02:06:43;;;;;;;8.60;1.55;;;;;;;13.54;100.00;100697.09;4803428;29;20731;-81
2023/09/14 02:09:12;;;;;;;8.10;1.80;;;;;;;13.50;100.00;100696.59;4789846;29;20106;-80
2023/09/14 02:11:40;;;;;;;4.05;1.30;;;;;;;13.46;100.00;100697.00;4804153;29;20038;-82
2023/09/14 02:14:10;;;;;;;12.00;1.50;;;;;;;13.45;100.00;100693.53;4815526;29;20050;-81
2023/09/14 02:16:40;;;;;;;6.25;1.35;;;;;;;13.45;100.00;100690.03;4817313;29;20120;-81
2023/09/14 02:19:09;;;;;;;10.23;1.55;;;;;;;13.45;100.00;100696.19;4820150;29;20077;-81
2023/09/14 02:21:39;;;;;;;8.85;1.50;;;;;;;13.45;100.00;100698.00;4811435;29;20070;-81
2023/09/14 02:24:09;;;;;;;10.55;1.50;;;;;;;13.44;100.00;100697.16;4804748;29;20041;-81
2023/09/14 02:26:38;;;;;;;5.05;1.33;;;;;;;13.45;100.00;100706.81;4836427;29;20050;-80
2023/09/14 02:29:08;;;;;;;6.78;1.45;;;;;;;13.44;100.00;100701.66;4800461;29;20042;-80
2023/09/14 02:31:37;;;;;;;10.73;1.70;;;;;;;13.43;100.00;100706.13;4820181;29;20054;-80
2023/09/14 02:34:07;;;;;;;10.80;1.23;;;;;;;13.43;100.00;100705.28;4802655;29;20046;-81
2023/09/14 02:36:36;;;;;;;9.23;2.08;;;;;;;13.44;100.00;100712.28;4800153;29;20519;-81
2023/09/14 02:39:04;;;;;;;8.80;1.45;;;;;;;13.40;100.00;100712.59;4782788;29;20122;-80
2023/09/14 02:41:31;;;;;;;11.40;1.38;;;;;;;13.41;100.00;100713.41;4821127;29;20065;-80
2023/09/14 02:43:59;;;;;;;8.80;1.67;;;;;;;13.40;100.00;100709.09;4832962;29;20046;-80
2023/09/14 02:46:27;;;;;;;11.52;1.77;;;;;;;13.39;100.00;100708.25;4835343;29;20077;-81
2023/09/14 02:48:54;;;;;;;9.50;1.45;;;;;;;13.37;100.00;100710.25;4807075;29;20030;-81
2023/09/14 02:51:24;;;;;;;10.75;1.75;;;;;;;13.39;100.00;100707.44;4817428;29;20078;-80
2023/09/14 02:53:51;;;;;;;7.97;1.48;;;;;;;13.35;100.00;100711.38;4805463;29;20065;-82
2023/09/14 02:56:19;;;;;;;7.97;1.15;;;;;;;13.36;100.00;100707.75;4818660;29;20199;-81
2023/09/14 02:58:47;;;;;;;9.30;1.65;;;;;;;13.34;100.00;100709.72;4798146;29;20076;-81
2023/09/14 03:01:16;;;;;;;13.30;1.55;;;;;;;13.35;100.00;100720.19;4821640;29;20631;-81
2023/09/14 03:03:44;;;;;;;9.65;1.40;;;;;;;13.32;100.00;100712.53;4788966;29;20038;-81
2023/09/14 03:06:11;;;;;;;10.55;1.88;;;;;;;13.34;100.00;100709.72;4810242;29;20183;-81
2023/09/14 03:08:39;;;;;;;11.77;1.48;;;;;;;13.32;100.00;100709.03;4804775;29;20041;-81
2023/09/14 03:11:07;;;;;;;8.18;0.93;;;;;;;13.35;100.00;100712.22;4786011;29;20137;-82
2023/09/14 03:13:35;;;;;;;7.95;1.25;;;;;;;13.34;100.00;100712.38;4821081;29;20045;-82
2023/09/14 03:16:03;;;;;;;10.75;1.45;;;;;;;13.35;100.00;100717.53;4806764;29;20062;-80
2023/09/14 03:18:31;;;;;;;14.75;1.65;;;;;;;13.33;100.00;100706.22;4808012;29;20479;-81
2023/09/14 03:21:01;;;;;;;11.50;1.27;;;;;;;13.36;100.00;100711.22;4786744;29;20038;-79
2023/09/14 03:23:53;;;;;;;14.40;1.88;;;;;;;13.39;100.00;100708.25;4787815;29;20042;-81
2023/09/14 03:26:25;;;;;;;10.15;1.70;;;;;;;13.39;100.00;100716.22;4818692;29;20054;-80
2023/09/14 03:28:55;;;;;;;11.05;1.60;;;;;;;13.37;100.00;100706.75;4822026;29;20050;-80
2023/09/14 03:31:25;;;;;;;10.27;1.60;;;;;;;13.37;100.00;100704.09;4823640;29;20050;-80
2023/09/14 03:33:55;;;;;;;10.70;1.63;;;;;;;13.39;100.00;100702.94;4802914;29;20054;-80
2023/09/14 03:36:24;;;;;;;12.35;1.60;;;;;;;13.40;100.00;100701.97;4808377;29;20073;-80
2023/09/14 03:38:52;;;;;;;9.82;1.38;;;;;;;13.39;100.00;100699.47;4819410;29;20069;-79
2023/09/14 03:41:25;;;;;;;11.60;1.15;;;;;;;13.37;100.00;100698.78;4816776;29;20499;-79
2023/09/14 03:43:53;;;;;;;13.07;1.60;;;;;;;13.33;100.00;100700.09;4808095;29;20095;-80
2023/09/14 03:46:23;;;;;;;14.10;1.83;;;;;;;13.33;100.00;100698.25;4802728;29;20042;-82
2023/09/14 03:48:51;;;;;;;10.48;1.70;;;;;;;13.28;100.00;100700.56;4811379;29;20486;-80
2023/09/14 03:51:18;;;;;;;9.52;1.30;;;;;;;13.31;100.00;100702.91;4784000;29;20049;-78
2023/09/14 03:53:46;;;;;;;9.63;1.65;;;;;;;13.27;100.00;100698.88;4806940;29;20038;-82
2023/09/14 03:56:15;;;;;;;6.32;1.10;;;;;;;13.29;100.00;100694.25;4809411;29;20046;-80
2023/09/14 03:58:43;;;;;;;11.38;1.75;;;;;;;13.25;100.00;100688.44;4794705;29;20026;-80
2023/09/14 04:01:12;;;;;;;12.32;1.33;;;;;;;13.25;100.00;100685.78;4807060;29;20066;-81
2023/09/14 04:03:42;;;;;;;6.30;1.10;;;;;;;13.25;100.00;100691.09;4790228;29;20074;-81
2023/09/14 04:06:11;;;;;;;7.78;1.38;;;;;;;13.27;100.00;100693.59;4787816;29;20077;-81
2023/09/14 04:08:38;;;;;;;11.40;1.70;;;;;;;13.25;100.00;100683.13;4814888;29;20057;-80
2023/09/14 04:11:06;;;;;;;11.57;1.30;;;;;;;13.27;100.00;100694.44;4792867;29;20080;-81
2023/09/14 04:13:35;;;;;;;13.55;1.42;;;;;;;13.31;100.00;100707.38;4806869;29;20045;-80
2023/09/14 04:16:08;;;;;;;7.00;1.40;;;;;;;13.29;100.00;100702.22;4787883;29;20254;-80
2023/09/14 04:18:38;;;;;;;17.58;2.10;;;;;;;13.26;100.00;100708.69;4805074;29;20201;-81
2023/09/14 04:21:08;;;;;;;13.18;2.15;;;;;;;13.28;100.00;100713.84;4803380;29;20532;-81
2023/09/14 04:23:38;;;;;;;9.70;1.42;;;;;;;13.28;100.00;100719.16;4790807;29;20065;-79
2023/09/14 04:26:10;;;;;;;11.85;1.55;;;;;;;13.28;100.00;100712.00;4802709;29;20073;-78
2023/09/14 04:28:38;;;;;;;13.00;1.70;;;;;;;13.28;100.00;100713.84;4784165;29;20049;-80
2023/09/14 04:31:08;;;;;;;11.45;1.30;;;;;;;13.31;100.00;100710.88;4806485;29;20048;-80
2023/09/14 04:33:36;;;;;;;12.20;1.70;;;;;;;13.31;100.00;100712.69;4801499;29;20526;-79
2023/09/14 04:36:07;;;;;;;10.45;1.65;;;;;;;13.30;100.00;100711.84;4796270;29;20038;-80
2023/09/14 04:38:38;;;;;;;13.15;1.85;;;;;;;13.27;100.00;100715.66;4807657;29;20062;-80
2023/09/14 04:41:08;;;;;;;11.13;2.00;;;;;;;13.30;100.00;100709.19;4809275;29;20133;-80
2023/09/14 04:43:38;;;;;;;7.75;0.90;;;;;;;13.30;100.00;100709.19;4821903;29;20525;-80
2023/09/14 04:46:07;;;;;;;7.18;1.50;;;;;;;13.34;100.00;100709.72;4821524;29;20097;-80
2023/09/14 04:48:38;;;;;;;8.70;0.98;;;;;;;13.33;100.00;100716.84;4792710;29;20207;-80
2023/09/14 04:51:06;;;;;;;7.32;1.10;;;;;;;13.38;100.00;100721.69;4779675;29;20101;-81
2023/09/14 04:53:34;;;;;;;13.80;1.88;;;;;;;13.36;100.00;100710.41;4806550;29;20049;-80
2023/09/14 04:56:03;;;;;;;7.53;1.00;;;;;;;13.40;100.00;100711.75;4803761;29;20070;-78
2023/09/14 04:58:30;;;;;;;15.77;1.17;;;;;;;13.35;100.00;100706.06;4784490;29;20385;-79
2023/09/14 05:00:58;;;;;;;9.18;1.30;;;;;;;13.35;100.00;100716.69;4826165;29;20077;-80
2023/09/14 05:03:28;;;;;;;10.40;1.60;;;;;;;13.30;100.00;100703.88;4813052;29;20135;-79
2023/09/14 05:05:59;;;;;;;11.30;1.27;;;;;;;13.29;100.00;100710.19;4785821;29;20034;-79
2023/09/14 05:08:29;;;;;;;9.98;1.10;;;;;;;13.26;100.00;100707.84;4806906;29;20061;-80
2023/09/14 05:10:59;;;;;;;8.55;1.48;;;;;;;13.23;100.00;100714.31;4815298;29;20046;-78
2023/09/14 05:13:29;;;;;;;12.65;1.50;;;;;;;13.22;100.00;100709.16;4810007;29;20872;-78
2023/09/14 05:15:59;;;;;;;11.43;1.98;;;;;;;13.20;100.00;100719.09;4802120;29;20072;-81
2023/09/14 05:18:30;;;;;;;6.57;1.05;;;;;;;13.18;100.00;100719.25;4803887;29;20057;-81
2023/09/14 05:21:00;;;;;;;13.13;1.58;;;;;;;13.16;100.00;100718.56;4819147;29;20053;-80
2023/09/14 05:23:28;;;;;;;10.18;2.03;;;;;;;13.15;100.00;100728.34;4826452;29;20108;-81
2023/09/14 05:25:56;;;;;;;12.13;1.50;;;;;;;13.11;100.00;100729.66;4821713;29;20083;-80
2023/09/14 05:28:24;;;;;;;8.10;1.25;;;;;;;13.09;100.00;100731.59;4811628;29;20053;-79
2023/09/14 05:30:51;;;;;;;5.07;0.80;;;;;;;13.06;100.00;100741.72;4806027;29;20504;-82
2023/09/14 05:33:21;;;;;;;5.15;1.30;;;;;;;13.04;100.00;100739.22;4788847;29;20050;-81
2023/09/14 05:35:51;;;;;;;4.28;0.82;;;;;;;13.02;100.00;100739.38;4812655;29;20121;-80
2023/09/14 05:38:19;;;;;;;3.72;0.60;;;;;;;12.98;100.00;100740.66;4804890;29;20049;-81
2023/09/14 05:40:50;;;;;;;6.03;0.95;;;;;;;13.05;100.00;100745.34;4801049;29;20443;-80
2023/09/14 05:43:17;;;;;;;4.80;0.90;;;;;;;12.99;100.00;100744.97;4800508;29;20488;-81
2023/09/14 05:45:47;;;;;;;4.18;0.85;;;;;;;12.99;100.00;100736.19;4801263;29;20047;-80
2023/09/14 05:48:17;;;;;;;7.03;1.60;;;;;;;12.91;100.00;100752.88;4795199;29;20472;-80
2023/09/14 05:50:46;;;;;;;8.15;1.48;;;;;;;12.89;100.00;100749.53;4803044;29;20046;-80
2023/09/14 05:53:17;;;;;;;5.35;1.13;;;;;;;12.85;100.00;100761.44;4808090;29;20052;-79
2023/09/14 05:55:44;;;;;;;6.22;1.13;;;;;;;12.87;100.00;100756.78;4811931;29;20515;-79
2023/09/14 05:58:12;;;;;;;6.85;0.85;;;;;;;12.85;100.00;100758.78;4804030;29;20042;-78
2023/09/14 06:00:42;;;;;;;4.70;0.98;;;;;;;12.86;100.00;100755.13;4780710;29;20118;-80
2023/09/14 06:03:12;;;;;;;5.95;0.95;;;;;;;12.83;100.00;100760.75;4810242;29;20050;-81
2023/09/14 06:05:41;;;;;;;5.35;1.10;;;;;;;12.82;100.00;100756.44;4819278;29;20052;-80
2023/09/14 06:08:10;;;;;;;9.05;1.38;;;;;;;12.74;100.00;100754.53;4796179;29;20053;-80
2023/09/14 06:10:38;;;;;;;6.30;1.00;;;;;;;12.67;100.00;100764.06;4820462;29;20743;-80
2023/09/14 06:13:06;;;;;;;5.70;1.10;;;;;;;12.68;100.00;100763.91;4807651;29;20049;-80
2023/09/14 06:15:34;;;;;;;7.85;1.63;;;;;;;12.69;100.00;100776.22;4816113;29;20034;-80
2023/09/14 06:18:04;;;;;;;4.57;0.90;;;;;;;12.69;100.00;100776.22;4787708;29;20603;-80
2023/09/14 06:20:33;;;;;;;5.03;0.63;;;;;;;12.62;100.00;100783.06;4817245;29;20137;-79
2023/09/14 06:23:01;;;;;;;6.40;1.05;;;;;;;12.59;100.00;100783.38;4787316;29;20069;-79
2023/09/14 06:25:31;;;;;;;6.68;1.00;;;;;;;12.62;100.00;100778.63;4803988;29;20046;-80
2023/09/14 06:27:59;;;;;;;5.28;1.60;;;;;;;12.65;100.00;100786.28;4812865;29;20682;-80
2023/09/14 06:30:27;;;;;;;4.45;1.45;;;;;;;12.69;100.00;100784.16;4815592;29;20046;-80
2023/09/14 06:32:55;;;;;;;9.40;1.02;;;;;;;12.75;100.00;100786.22;4797758;29;20038;-81
2023/09/14 06:35:22;;;;;;;3.60;0.98;;;;;;;12.78;100.00;100791.22;4800106;29;20105;-80
2023/09/14 06:37:53;;;;;;;4.78;0.50;;;;;;;12.86;100.00;100792.28;4831993;29;20130;-80
2023/09/14 06:40:24;;;;;;;3.65;0.80;;;;;;;12.90;100.00;100791.81;4803974;29;20089;-79
2023/09/14 06:42:53;;;;;;;7.75;0.80;;;;;;;12.91;100.00;100792.66;4814214;29;20038;-81
2023/09/14 06:45:22;;;;;;;8.25;1.20;;;;;;;12.93;100.00;100795.16;4799281;29;20134;-80
2023/09/14 06:47:50;;;;;;;5.25;1.13;;;;;;;12.90;100.00;100790.97;4783222;29;20091;-80
2023/09/14 06:50:18;;;;;;;7.68;1.50;;;;;;;12.92;100.00;100789.00;4807451;29;20528;-80
2023/09/14 06:52:45;;;;;;;6.00;1.25;;;;;;;12.94;100.00;100802.97;4770984;29;20034;-81
2023/09/14 06:55:14;;;;;;;4.95;1.30;;;;;;;12.96;100.00;100801.00;4798540;29;20056;-81
2023/09/14 06:57:42;;;;;;;4.97;1.00;;;;;;;12.96;100.00;100800.16;4784054;29;20484;-80
2023/09/14 07:00:20;;;;;;;5.28;1.35;;;;;;;12.96;100.00;100806.31;4817741;29;20126;-80
2023/09/14 07:02:52;;;;;;;6.20;0.88;;;;;;;12.96;100.00;100811.63;4818461;29;20038;-80
2023/09/14 07:05:22;;;;;;;5.13;1.35;;;;;;;13.00;100.00;100818.28;4819141;29;20049;-81
2023/09/14 07:07:51;;;;;;;4.93;1.15;;;;;;;13.06;100.00;100816.84;4816839;29;20045;-81
2023/09/14 07:10:21;;;;;;;4.80;1.10;;;;;;;13.12;100.00;100813.56;4805886;29;20093;-81
2023/09/14 07:12:51;;;;;;;3.75;1.25;;;;;;;13.17;100.00;100818.41;4802596;29;20034;-81
2023/09/14 07:15:21;;;;;;;4.57;1.48;;;;;;;13.19;100.00;100811.16;4820919;29;20034;-81
2023/09/14 07:17:51;;;;;;;3.30;1.10;;;;;;;13.22;100.00;100805.53;4803112;29;20124;-81
2023/09/14 07:20:20;;;;;;;6.53;1.23;;;;;;;13.27;100.00;100816.53;4790468;29;20171;-81
2023/09/14 07:22:50;;;;;;;3.78;1.00;;;;;;;13.34;100.00;100813.25;4800425;29;20091;-80
2023/09/14 07:25:20;;;;;;;4.95;1.23;;;;;;;13.40;100.00;100815.31;4809309;29;20064;-82
2023/09/14 07:27:50;;;;;;;5.30;1.52;;;;;;;13.45;100.00;100823.66;4817795;29;20041;-80
2023/09/14 07:30:20;;;;;;;7.53;1.38;;;;;;;13.47;100.00;100819.00;4806209;29;20124;-82
2023/09/14 07:32:49;;;;;;;3.22;1.00;;;;;;;13.52;100.00;100827.38;4821517;29;20069;-81
2023/09/14 07:35:19;;;;;;;4.70;1.35;;;;;;;13.61;100.00;100825.63;4802625;29;20619;-80
2023/09/14 07:37:49;;;;;;;10.95;1.13;;;;;;;13.68;100.00;100827.66;4788701;29;20054;-81
2023/09/14 07:40:19;;;;;;;6.68;1.40;;;;;;;13.72;100.00;100826.34;4813446;29;20491;-81
2023/09/14 07:42:49;;;;;;;4.72;1.15;;;;;;;13.74;100.00;100832.34;4812469;29;20109;-81
2023/09/14 07:45:19;;;;;;;5.25;1.33;;;;;;;13.72;100.00;100827.19;4807855;29;20087;-82
2023/09/14 07:47:49;;;;;;;11.77;1.45;;;;;;;13.67;100.00;100834.78;4803292;29;20049;-81
2023/09/14 07:50:19;;;;;;;6.50;1.23;;;;;;;13.69;100.00;100832.81;4817200;29;20614;-80
2023/09/14 07:52:48;;;;;;;5.28;1.20;;;;;;;13.72;100.00;100829.84;4804775;29;20045;-81
2023/09/14 07:55:17;;;;;;;5.63;1.35;;;;;;;13.76;100.00;100819.75;4818456;29;20124;-80
2023/09/14 07:57:45;;;;;;;5.75;1.13;;;;;;;13.74;100.00;100816.41;4787372;29;20095;-79
2023/09/14 08:00:14;;;;;;;5.18;1.50;;;;;;;13.76;100.00;100819.75;4804633;29;20103;-78
2023/09/14 08:02:44;;;;;;;9.52;1.63;;;;;;;13.79;100.00;100831.88;4814380;29;20042;-80
2023/09/14 08:05:13;;;;;;;3.47;0.70;;;;;;;13.81;100.00;100828.06;4819599;29;20030;-80
2023/09/14 08:07:42;;;;;;;3.97;1.00;;;;;;;13.83;100.00;100826.09;4836558;29;20033;-80
2023/09/14 08:10:10;;;;;;;5.25;1.05;;;;;;;13.85;100.00;100828.59;4805661;29;20080;-78
2023/09/14 08:12:40;;;;;;;9.60;1.65;;;;;;;13.87;100.00;100818.66;4816711;29;20070;-79
2023/09/14 08:15:10;;;;;;;6.43;1.30;;;;;;;13.89;100.00;100827.28;4827373;29;20030;-79
2023/09/14 08:17:40;;;;;;;5.22;1.02;;;;;;;13.91;100.00;100824.47;4814100;29;20106;-80
2023/09/14 08:20:10;;;;;;;5.78;1.52;;;;;;;13.90;100.00;100828.97;4813409;29;20121;-80
2023/09/14 08:22:39;;;;;;;9.13;1.20;;;;;;;13.88;100.00;100823.81;4800162;29;20137;-80
2023/09/14 08:25:10;;;;;;;9.77;1.17;;;;;;;13.93;100.00;100820.69;4802589;29;20052;-80
2023/09/14 08:27:39;;;;;;;12.00;1.40;;;;;;;14.01;100.00;100822.56;4798406;29;20671;-81
2023/09/14 08:30:08;;;;;;;6.20;1.10;;;;;;;14.12;100.00;100834.72;4797295;29;20045;-80
2023/09/14 08:32:37;;;;;;;8.82;1.25;;;;;;;14.16;100.00;100820.13;4814531;29;20041;-79
2023/09/14 08:35:24;;;;;;;10.93;1.70;;;;;;;14.20;100.00;100821.50;4818368;29;20037;-81
2023/09/14 08:37:55;;;;;;;8.98;1.40;;;;;;;14.22;100.00;100824.81;4819634;29;20491;-81
2023/09/14 08:40:25;;;;;;;12.00;1.25;;;;;;;14.27;100.00;100825.16;4805361;29;20107;-80
2023/09/14 08:42:54;;;;;;;8.02;1.13;;;;;;;14.31;100.00;100835.47;4849190;29;20038;-80
2023/09/14 08:45:26;;;;;;;8.48;1.48;;;;;;;14.37;100.00;100830.38;4804254;29;20053;-81
2023/09/14 08:47:57;;;;;;;8.73;1.80;;;;;;;14.40;100.00;100831.84;4801936;29;20039;-81
2023/09/14 08:50:29;;;;;;;8.38;1.52;;;;;;;14.50;100.00;100839.72;4806794;29;20046;-81
2023/09/14 08:52:58;;;;;;;8.68;1.27;;;;;;;14.57;100.00;100845.22;4819505;29;20034;-81
2023/09/14 08:55:34;;;;;;;10.23;1.55;;;;;;;14.66;100.00;100840.75;4806205;29;20041;-87
2023/09/14 08:58:03;;;;;;;6.53;1.27;;;;;;;14.67;100.00;100843.25;4817292;29;20041;-87
2023/09/14 09:00:33;;;;;;;7.45;1.10;;;;;;;14.79;100.00;100842.97;4808798;29;20677;-87
2023/09/14 09:03:02;;;;;;;4.70;0.90;;;;;;;14.85;100.00;100834.34;4789815;29;20129;-85
2023/09/14 09:05:30;;;;;;;9.98;1.95;;;;;;;14.90;100.00;100834.72;4779286;29;20097;-85
2023/09/14 09:07:59;;;;;;;5.93;1.17;;;;;;;15.00;100.00;100831.91;4804941;29;20038;-86
2023/09/14 09:10:34;;;;;;;11.75;2.05;;;;;;;15.11;100.00;100841.41;4818113;29;20117;-85
2023/09/14 09:13:04;;;;;;;13.18;1.50;;;;;;;15.11;100.00;100836.06;4791917;29;20043;-86
2023/09/14 09:15:34;;;;;;;14.13;2.53;;;;;;;15.14;100.00;100841.06;4788144;29;20039;-88
2023/09/14 09:18:12;;;;;;;7.55;1.60;;;;;;;15.17;100.00;100840.75;4793794;29;20034;-85
2023/09/14 09:20:45;;;;;;;9.00;1.20;;;;;;;15.19;100.00;100835.25;4791512;29;20130;-86
2023/09/14 09:23:17;;;;;;;7.93;1.67;;;;;;;15.17;100.00;100826.59;4788242;29;20085;-88
2023/09/14 09:25:54;;;;;;;12.02;1.70;;;;;;;15.16;100.00;100833.72;4785813;29;20039;-87
2023/09/14 09:28:31;;;;;;;8.75;1.27;;;;;;;15.18;100.00;100831.75;4784899;29;20039;-87
2023/09/14 09:31:02;;;;;;;12.35;1.45;;;;;;;15.21;100.00;100841.25;4803078;29;20043;-88
2023/09/14 09:33:37;;;;;;;9.05;2.20;;;;;;;15.23;100.00;100839.22;4769194;29;20615;-88
2023/09/14 09:36:19;;;;;;;9.68;1.73;;;;;;;15.24;100.00;100839.06;4817990;29;20038;-86
2023/09/14 09:38:50;;;;;;;12.77;1.67;;;;;;;15.26;100.00;100846.91;4773186;29;20054;-84
2023/09/14 09:41:21;;;;;;;17.20;1.75;;;;;;;15.28;100.00;100844.91;4792054;29;20038;-87
2023/09/14 09:43:52;;;;;;;14.20;1.50;;;;;;;15.28;100.00;100844.06;4814833;29;20034;-86
2023/09/14 09:46:21;;;;;;;13.95;2.03;;;;;;;15.25;100.00;100846.06;4804348;29;20039;-87
2023/09/14 09:48:48;;;;;;;6.90;1.35;;;;;;;15.24;100.00;100851.56;4794601;29;20074;-79
2023/09/14 09:51:22;;;;;;;7.20;1.17;;;;;;;15.33;100.00;100847.06;4781178;29;20049;-87
2023/09/14 09:54:06;;;;;;;4.97;1.13;;;;;;;15.38;100.00;100839.41;4774559;29;20078;-87
2023/09/14 09:56:37;;;;;;;10.35;1.85;;;;;;;15.39;100.00;100835.75;4796152;29;20042;-87
2023/09/14 09:59:13;;;;;;;13.95;1.40;;;;;;;15.49;100.00;100838.25;4796928;29;20104;-86
2023/09/14 10:01:47;;;;;;;8.20;1.70;;;;;;;15.58;100.00;100839.06;4793875;29;20119;-87
2023/09/14 10:04:17;;;;;;;17.48;2.97;;;;;;;15.62;100.00;100843.88;4801007;29;20041;-88
2023/09/14 10:06:52;;;;;;;11.30;1.65;;;;;;;15.66;100.00;100836.41;4794080;29;20049;-89
2023/09/14 10:09:24;;;;;;;11.77;1.42;;;;;;;15.70;100.00;100834.25;4800434;29;20060;-88
2023/09/14 10:11:56;;;;;;;7.30;1.35;;;;;;;15.72;100.00;100835.72;4828238;29;20038;-89
2023/09/14 10:14:29;;;;;;;8.25;1.10;;;;;;;15.73;100.00;100833.91;4809602;29;20180;-89
2023/09/14 10:17:03;;;;;;;6.60;1.00;;;;;;;15.71;100.00;100826.06;4808648;29;20439;-88
2023/09/14 10:19:32;;;;;;;14.50;1.80;;;;;;;15.70;100.00;100828.91;4792128;29;20049;-89
2023/09/14 10:22:02;;;;;;;12.63;1.45;;;;;;;15.75;100.00;100842.56;4794356;29;20034;-87
2023/09/14 10:24:32;;;;;;;6.63;1.17;;;;;;;15.80;100.00;100839.41;4796939;29;20099;-87
2023/09/14 10:27:04;;;;;;;9.07;1.30;;;;;;;15.79;100.00;100835.03;4790972;29;20034;-88
2023/09/14 10:29:41;;;;;;;6.22;1.35;;;;;;;15.83;100.00;100842.53;4799529;29;20057;-89
2023/09/14 10:32:14;;;;;;;7.47;1.30;;;;;;;15.86;100.00;100852.84;4790256;29;20472;-89
2023/09/14 10:34:50;;;;;;;11.60;2.00;;;;;;;15.86;100.00;100841.38;4803350;29;20567;-89
2023/09/14 10:37:20;;;;;;;10.98;1.20;;;;;;;15.87;100.00;100840.38;4794109;29;20046;-87
2023/09/14 10:39:48;;;;;;;12.45;1.48;;;;;;;15.84;100.00;100846.03;4800468;29;20051;-87
2023/09/14 10:42:15;;;;;;;8.25;1.55;;;;;;;15.86;100.00;100836.03;4787036;29;20039;-85
2023/09/14 10:44:44;;;;;;;8.10;1.17;;;;;;;15.86;100.00;100830.72;4772893;29;20092;-88
2023/09/14 10:47:15;;;;;;;9.77;1.15;;;;;;;15.88;100.00;100818.88;4789733;29;20686;-88
2023/09/14 10:49:45;;;;;;;9.30;1.50;;;;;;;15.91;100.00;100828.34;4789765;29;20035;-86
2023/09/14 10:52:24;;;;;;;9.75;1.50;;;;;;;15.96;100.00;100826.00;4789464;29;20195;-87
2023/09/14 10:54:55;;;;;;;7.25;1.30;;;;;;;16.02;100.00;100815.72;4779319;29;20046;-88
2023/09/14 10:57:27;;;;;;;6.47;1.15;;;;;;;16.05;100.00;100813.53;4818936;29;20184;-87
2023/09/14 11:00:06;;;;;;;8.40;1.55;;;;;;;16.07;100.00;100808.03;4812561;29;20102;-89
2023/09/14 11:02:39;;;;;;;4.88;1.00;;;;;;;16.14;100.00;100805.50;4800552;29;20047;-84
2023/09/14 11:05:13;;;;;;;4.78;0.98;;;;;;;16.15;100.00;100802.66;4807402;29;20704;-88
2023/09/14 11:07:50;;;;;;;8.93;1.20;;;;;;;16.12;100.00;100805.66;4839902;29;20049;-88
2023/09/14 11:10:19;;;;;;;13.23;3.20;;;;;;;16.12;100.00;100806.50;4809616;29;20041;-88
2023/09/14 11:12:51;;;;;;;7.93;1.30;;;;;;;16.12;100.00;100800.31;4798345;29;20054;-89
2023/09/14 11:15:35;;;;;;;9.43;1.50;;;;;;;16.20;100.00;100805.63;4838262;29;20034;-86
2023/09/14 11:18:06;;;;;;;11.23;1.27;;;;;;;16.20;100.00;100804.78;4795830;29;20033;-88
2023/09/14 11:20:39;;;;;;;5.38;0.88;;;;;;;16.24;100.00;100800.78;4797001;29;20588;-90
2023/09/14 11:23:09;;;;;;;7.50;1.48;;;;;;;16.30;100.00;100800.09;4822086;29;20038;-88
2023/09/14 11:25:53;;;;;;;7.65;1.13;;;;;;;16.31;100.00;100804.41;4824264;29;20044;-89
2023/09/14 11:28:25;;;;;;;8.23;1.10;;;;;;;16.34;100.00;100796.06;4816857;29;20079;-89
2023/09/14 11:31:08;;;;;;;12.50;1.40;;;;;;;16.32;100.00;100783.94;4836912;29;20067;-89
2023/09/14 11:33:38;;;;;;;6.40;1.60;;;;;;;16.35;100.00;100792.41;4793590;29;20065;-89
2023/09/14 11:36:29;;;;;;;5.82;1.10;;;;;;;16.41;100.00;100780.22;4824862;29;20038;-89
2023/09/14 11:39:29;;;;;;;5.32;0.77;;;;;;;16.41;100.00;100782.03;4793354;29;20042;-89
2023/09/14 11:42:12;;;;;;;12.00;1.65;;;;;;;16.47;100.00;100784.84;4809622;29;20048;-90
2023/09/14 11:44:53;;;;;;;6.93;1.30;;;;;;;16.46;100.00;100782.34;4826535;29;20049;-89
2023/09/14 11:47:22;;;;;;;4.40;0.95;;;;;;;16.46;100.00;100788.53;4820482;29;20064;-88
2023/09/14 11:50:17;;;;;;;8.68;1.25;;;;;;;16.47;100.00;100784.84;4807524;29;20492;-87
2023/09/14 11:52:45;;;;;;;7.20;1.48;;;;;;;16.41;100.00;100772.19;4810745;29;20034;-88
2023/09/14 11:55:23;;;;;;;7.97;1.00;;;;;;;16.46;100.00;100767.19;4825092;29;20121;-87
2023/09/14 11:57:58;;;;;;;7.70;1.10;;;;;;;16.54;100.00;100784.97;4824603;29;20045;-90
2023/09/14 12:00:41;;;;;;;10.65;1.25;;;;;;;16.61;100.00;100788.59;4808987;29;20048;-88